Terminal Aerodrome Forecast
Issued by NWS

Home | Current Version | Previous Version | Text Only | Print | Product List | Glossary On
Versions: 1 2 3 4 5 6 7 8 9 10 11 12 13
000
FTUS45 KTFX 061120
TAFHLN
TAF
KHLN 061120Z 0612/0712 VRB05KT P6SM SCT040 BKN070
      TEMPO 0612/0614 -SHRA BKN050
     FM061500 33010KT P6SM SCT070 BKN100
     FM070500 28008KT P6SM SCT050 BKN080=

USA.gov is the U.S. government's official web portal to all federal, state and local government web resources and services.